Janesville Southern Wisconsin Regional Airport

About
Name: Janesville Southern Wisconsin Regional Airport
Identifier:  JVL/KJVL
Serves:  Janesville, Wisconsin
Owner:  Rock County
Public/Private:  Public
Local Time:  18. Sep 13:47 CDT
Description: Southern Wisconsin Regional Airport is a public airport located southwest of Janesville and north of Beloit in Rock County, Wisconsin, United States. Formerly known as Rock County Airport, it is owned and operated by the Rock County government. The airport has no scheduled commercial passenger service.
Source: Wikipedia
Location
Runways
Identifier Length (m/ft) Surface
14/32 2,226/7,302 Concrete
4/22 2,042/6,701 Asphalt
18/36 1,525/5,004 Asphalt
Statistics
Flights per Day:
0 flights
Distance: 314km (195mi)
Flights delayed:
0% (0 flights per day delayed)
Delay Average: 10 minutes
Current Weather
 27 C (Humidity: 61%)
  7kt (12km/h / 8mph) from 190°
  Scattered clouds at 20,000 feet (6,096 meter)
  16km (10 mi.)
 METAR KJVL 181745Z 19007KT 10SM SCT200 27/19 A3011

Current Delays

Departures
N/A
Arrivals
N/A

Destinations

Top Destinations
Airport Flights
per week
Seats
per week
  Rochester (RST) 0 - 0 0

Airlines & Planes

Top Airlines
Airline Flights
per Day
Seats
per Day
  Flybe Nordic 0 -
Top Plane Types
Model Flights Seats
Pilatus PC-12 0.0/day - 0